< < Back
Terminal Aerodrome Forecast


Current Version              Previous Versions:   1  2  3  4  5  6  7  8  9  

Terminal Aerodrome Forecast

279
FTUS42 KMLB 200300 AAA
TAFMCO
TAF AMD
KMCO 200300Z 2003/2024 01007KT P6SM FEW040 SCT300
     FM200600 02003KT P6SM SCT025 SCT300
      TEMPO 2010/2012 5SM MIFG BR
     FM201400 10004KT P6SM SCT035 BKN300
     FM201800 13006KT P6SM SCT045 BKN300=



Latest METAR

973
SAUS70 KWBC 200800 RRJ
MTRMCO
METAR KMCO 200753Z 36005KT 10SM FEW042 19/18 A3002 RMK AO2 SLP164
T01890183 $


USA.gov is the U.S. government's official web portal to all federal, state and local government web resources and services.